SVA6EH LROP-OERK
Flight info
| Callsign | SVA6EH |
|---|---|
| Flight time | N/A |
| Altitude | 39000 |
| Route | NETUL DCT CND DCT NITUX/N0451F380 DCT RIXEN/N0451F390 UL620 IST UT35 AYT UA16 TOMBI M855 RASDA A16 CVO L315 OBTAV DCT SOKOT L315 HGD M872 KAVUR |
| Aircraft | A20N/M-SDE2E3FGHIRWXY/LB1 |
Departure
| Time | 2026-05-01 09:23 |
|---|---|
| Airport | Bucharest Henri Coandă International Airport (LROP) |
Arrival
| Time | N/A |
|---|---|
| Airport | King Khalid International Airport (OERK) |
| Time | Latitude | Longitude | Altitude | Speed | Heading |
|---|---|---|---|---|---|
| 2026-05-01 09:06 | 44.57141 | 26.08113 | 322 ft | 0 kts | 174° |
| 2026-05-01 09:15 | 44.57146 | 26.08112 | 322 ft | 0 kts | 172° |
| 2026-05-01 09:15 | 44.57156 | 26.08110 | 320 ft | 2 kts | 174° |
| 2026-05-01 09:16 | 44.57170 | 26.08108 | 322 ft | 2 kts | 174° |
| 2026-05-01 09:16 | 44.57184 | 26.08106 | 322 ft | 2 kts | 175° |
| 2026-05-01 09:16 | 44.57198 | 26.08105 | 323 ft | 2 kts | 152° |
| 2026-05-01 09:17 | 44.57203 | 26.08078 | 320 ft | 0 kts | 83° |
| 2026-05-01 09:18 | 44.57203 | 26.08079 | 320 ft | 0 kts | 83° |
| 2026-05-01 09:18 | 44.57206 | 26.08125 | 321 ft | 5 kts | 83° |
| 2026-05-01 09:19 | 44.57217 | 26.08262 | 322 ft | 9 kts | 85° |
| 2026-05-01 09:19 | 44.57223 | 26.08358 | 321 ft | 11 kts | 84° |
| 2026-05-01 09:19 | 44.57234 | 26.08470 | 322 ft | 12 kts | 66° |
| 2026-05-01 09:20 | 44.57393 | 26.08481 | 320 ft | 14 kts | 354° |
| 2026-05-01 09:20 | 44.57549 | 26.08459 | 321 ft | 0 kts | 354° |
| 2026-05-01 09:21 | 44.57616 | 26.08452 | 321 ft | 12 kts | 2° |
| 2026-05-01 09:22 | 44.57670 | 26.08554 | 323 ft | 0 kts | 86° |
| 2026-05-01 09:22 | 44.57708 | 26.09045 | 321 ft | 82 kts | 84° |
| 2026-05-01 09:23 | 44.57756 | 26.09691 | 321 ft | 118 kts | 84° |
| 2026-05-01 09:23 | 44.57930 | 26.12313 | 1012 ft | 147 kts | 84° |
| 2026-05-01 09:24 | 44.58017 | 26.15334 | 2076 ft | 163 kts | 84° |
| 2026-05-01 09:24 | 44.58039 | 26.16446 | 2390 ft | 175 kts | 84° |
| 2026-05-01 09:24 | 44.58300 | 26.20168 | 3335 ft | 212 kts | 76° |
| 2026-05-01 09:25 | 44.58966 | 26.24616 | 4469 ft | 252 kts | 75° |
| 2026-05-01 09:25 | 44.59704 | 26.29526 | 6393 ft | 262 kts | 76° |